Wednesday, June 29, 2016
01:56 UTC
  |  Log In   |  Register Free
Airport Search:

Comanche County-City Airport
(KMKN)

Comanche County-City Airport Diagram
No Airport Diagram Available

FAA data valid effective May 26 2016 - Jul 21 2016 (unless otherwise noted).

 
 
 
 
 
 
 
 
 
 
 
 
 
 
Current Aviation Weather for KMKN

Weather Summary


The most recent METAR observation for MKN was updated at: 12:55 UTC
METAR for KMKN is not available. Closest METAR is for KBWD
KMKN  (most recent observation was updatred at 29:01 UTC)
290135Z AUTO 16003KT 10SM CLR 25/21 A3006 RMK AO2 T02450211

KBWD  (19.7 nm NE)   (most recent observation was updated at 29:01 UTC)
290135Z AUTO 25003KT 10SM CLR 23/22 A3006 RMK AO2

KMNZ  (27.6 nm NW)   (most recent observation was updated at 29:01 UTC)
290135Z AUTO 30004KT 10SM CLR 23/23 A3004 RMK AO2 T02250225

TAF for KMKN is not available.
GlobalAir.com is loading additional information.
 Current Weather at MKN
77.0 F° (25.0 C°)

East winds at 5.8 mph
Pressure:
30.09 in
Humidity:
79%
Wind:
East at 5.8 mph
Dew Point:
69.8 F° (21.0 C°)
Visibility:
10.00 mi
MKN NOAA Radar




Find All Airport Services Find A Hotel Find A Rental Car Find A Golf Course Find A Restaurant $100 Hamburger



Airport Weather Forecast for KMKN

Translated METAR for KMKN (0135 UTC)
METAR:
KMKN 290135Z AUTO 16003KT 10SM CLR 25/21 A3006 RMK AO2 T02450211
Conditions at:
KMKN (Comanche County-City, TX) observed 0135 UTC 28 June 2016
Temperature:
25°C (77°F)
Dewpoint:
21°C (69.8°F) [RH = 78.5]
Pressure:
30.06 inches Hg (1017.9 mb)
Winds:
from the SSE (160 degrees) at 3.5 mph (3 knots: 1.5 m/s)
Visibility:
10 mile(s)
Ceiling:
at least 12,000 feet AGL
Clouds:
Clear below 12,000 feet AGL
Remarks:
site is un-manned
site is automated and HAS a precipitation sensor

Translated TAF for TAF for MKN is not available. Refer to local area forecast.
FBO's on the Field
FBO Company Facility Photos Services Transportation Aviation Fuel Prices: Prices include tax
Catering Weather Repair Courtesy Rental Type 100LL JetA JetA+ MOGAS 8087
 
Comanche County/City Airport

This FBO has not yet been rated
FS:Avfuel
Last Updated: Jun-10
Login to update fuel prices
SS:
Contact Comanche County/City AirportMore FBO Information
 
Add another FBO Facility Photos Catering Weather Repair Courtesy Rental Type 100LL JetA JetA+ MOGAS 8087
Services Transportation Aviation Fuel Prices: Prices include tax


model-print
model-print
model-print
model-print